Almira, Washington
Current Conditions -  °F | °C
As of 12:53 PM on Sunday 21 Dec 2014 (Local Time) from KEPH Reporting Station
Clear Clear  
Wind Chill: 54°   Ceiling: Unl
Heat Index: 54°   Visibility: 10mi
Dew Point: 36°   Wind: 20mph
Humidity: 51%   Direction: 300°WNW
Pressure: 29.84"   Gusts: NA
Location:  47.71°N, 118.94°W
Report Text: KEPH 212053Z AUTO 30017KT 10SM CLR 12/02 A2984 RMK AO2 PK WND 29029/2009 SLP107 T01220022 51011
Loading
Personal Weather Stations






























Interactive Weather Map New forecast layout! Learn more

10-Day Weather Forecast

Advertisements
Track Severe Weather on mobile